Paradise, Missouri
Current Conditions -  °F | °C
As of 2:53 AM on Wednesday 26 Nov 2014 (Local Time) from KMCI Reporting Station
Light Snow Light Snow  
Wind Chill: 27°   Ceiling: 2700
Heat Index: 38°   Visibility: 9mi
Dew Point: 28°   Wind: 22mph
Humidity: 68%   Direction: 230°SW
Pressure: 29.95"   Gusts: 32mph
Location:  39.3944°N, 94.5382°W
Report Text: KMCI 260853Z 23019G28KT 190V260 9SM -SN BKN027 OVC036 03/M02 A2995 RMK AO2 PK WND 19028/0851 RAB45E46SNB44 SLP146 P0000 60000 T00331022 53005
Loading
Personal Weather Stations






























Interactive Weather Map New forecast layout! Learn more

10-Day Weather Forecast

Advertisements
Track Severe Weather on mobile